Arnold, North Carolina
Current Conditions -  °F | °C
As of 9:15 AM on Tuesday 27 Jan 2015 (Local Time) from KEXX Reporting Station
Clear Clear  
Wind Chill: 27°   Ceiling: Unl
Heat Index: 32°   Visibility: 10mi
Dew Point: 17°   Wind: 5mph
Humidity: 55%   Direction: 10°N
Pressure: 29.84"   Gusts: NA
Location:  35.7974°N, 80.2541°W
Report Text: KEXX 271415Z AUTO 01004KT 10SM CLR 00/M08 A2984 RMK AO2 T00001082
Loading
Personal Weather Stations






























Interactive Weather Map New forecast layout! Learn more

10-Day Weather Forecast

Advertisements
Track Severe Weather on mobile